Time;durP1;ratioP1;P1;durP2;ratioP2;P2;SDS_P1;SDS_P2;PMS_P1;PMS_P2;Temp;Humidity;BMP_temperature;BMP_pressure;BME280_temperature;BME280_humidity;BME280_pressure;Samples;Min_cycle;Max_cycle;Signal;HPM_P1;HPM_P2
2022/01/02 00:01:48;;;;;;;12.40;6.75;;;;;;;;;;5111155;27;20633;-85
2022/01/02 00:04:18;;;;;;;11.10;6.30;;;;;;;;;;5134752;27;20085;-86
2022/01/02 00:06:54;;;;;;;14.25;7.40;;;;;;;;;;5143071;27;20027;-87
2022/01/02 00:09:25;;;;;;;13.13;6.97;;;;;;;;;;5124863;27;20053;-85
2022/01/02 00:11:53;;;;;;;14.77;7.50;;;;;;;;;;5128658;27;20360;-85
2022/01/02 00:14:22;;;;;;;12.57;7.53;;;;;;;;;;5093243;28;20093;-85
2022/01/02 00:16:50;;;;;;;16.02;7.13;;;;;;;;;;5099856;27;20051;-86
2022/01/02 00:19:27;;;;;;;11.65;6.10;;;;;;;;;;5110561;27;20047;-85
2022/01/02 00:21:55;;;;;;;11.70;6.57;;;;;;;;;;5107580;27;20085;-86
2022/01/02 00:24:21;;;;;;;10.27;7.32;;;;;;;;;;5109570;27;20518;-85
2022/01/02 00:26:50;;;;;;;8.68;5.78;;;;;;;;;;5111235;27;20031;-88
2022/01/02 00:29:16;;;;;;;16.10;8.20;;;;;;;;;;5126968;27;20086;-87
2022/01/02 00:31:43;;;;;;;14.43;7.80;;;;;;;;;;5127894;27;20402;-85
2022/01/02 00:34:10;;;;;;;15.00;7.75;;;;;;;;;;5108053;27;20039;-86
2022/01/02 00:36:37;;;;;;;13.00;7.32;;;;;;;;;;5104823;28;20067;-85
2022/01/02 00:39:04;;;;;;;12.15;6.82;;;;;;;;;;5124654;27;20125;-88
2022/01/02 00:41:42;;;;;;;16.30;7.35;;;;;;;;;;5109303;27;20089;-86
2022/01/02 00:44:14;;;;;;;13.27;7.75;;;;;;;;;;5109169;27;20452;-86
2022/01/02 00:46:47;;;;;;;14.57;7.63;;;;;;;;;;5127190;27;20055;-84
2022/01/02 00:49:17;;;;;;;28.48;8.43;;;;;;;;;;5110577;27;20078;-87
2022/01/02 00:51:47;;;;;;;13.18;7.65;;;;;;;;;;5108993;28;20081;-86
2022/01/02 00:54:18;;;;;;;14.98;8.30;;;;;;;;;;5115988;27;20096;-85
2022/01/02 00:56:46;;;;;;;15.75;7.80;;;;;;;;;;5123504;27;20509;-86
2022/01/02 00:59:32;;;;;;;15.68;7.97;;;;;;;;;;5126659;27;20032;-86
2022/01/02 01:02:02;;;;;;;12.88;7.75;;;;;;;;;;5119406;28;20058;-86
2022/01/02 01:04:29;;;;;;;15.63;8.07;;;;;;;;;;5093438;28;20379;-86
2022/01/02 01:06:58;;;;;;;14.23;7.45;;;;;;;;;;5109585;28;20070;-87
2022/01/02 01:09:27;;;;;;;14.55;8.23;;;;;;;;;;5106473;28;20027;-86
2022/01/02 01:11:54;;;;;;;13.75;8.10;;;;;;;;;;5127740;28;20058;-85
2022/01/02 01:14:20;;;;;;;16.75;7.70;;;;;;;;;;5109166;28;20035;-87
2022/01/02 01:16:46;;;;;;;18.30;8.82;;;;;;;;;;5109033;28;20044;-85
2022/01/02 01:19:12;;;;;;;15.68;7.63;;;;;;;;;;5127183;28;20039;-84
2022/01/02 01:21:38;;;;;;;18.10;8.38;;;;;;;;;;5126135;28;20076;-86
2022/01/02 01:24:04;;;;;;;12.05;7.75;;;;;;;;;;5110527;28;20051;-86
2022/01/02 01:26:31;;;;;;;14.70;8.43;;;;;;;;;;5121305;28;20024;-91
2022/01/02 01:28:57;;;;;;;19.88;8.85;;;;;;;;;;5109665;28;20047;-84
2022/01/02 01:31:23;;;;;;;20.02;7.75;;;;;;;;;;5108187;28;20627;-85
2022/01/02 01:33:49;;;;;;;16.83;8.15;;;;;;;;;;5108310;28;20367;-84
2022/01/02 01:36:16;;;;;;;16.88;7.97;;;;;;;;;;5109051;28;20394;-87
2022/01/02 01:38:42;;;;;;;18.95;7.95;;;;;;;;;;5107756;28;20043;-87
2022/01/02 01:41:28;;;;;;;22.60;9.05;;;;;;;;;;5075519;28;20071;-89
2022/01/02 01:46:33;;;;;;;15.35;7.43;;;;;;;;;;5127249;27;20452;-86
2022/01/02 01:48:59;;;;;;;14.93;7.65;;;;;;;;;;5112492;27;20121;-86
2022/01/02 01:51:25;;;;;;;13.40;8.00;;;;;;;;;;5130421;27;20461;-86
2022/01/02 01:53:52;;;;;;;15.60;7.07;;;;;;;;;;5113566;27;20474;-86
2022/01/02 01:56:18;;;;;;;17.25;9.30;;;;;;;;;;5112174;27;20031;-87
2022/01/02 01:58:45;;;;;;;19.83;10.15;;;;;;;;;;5110357;27;20086;-88
2022/01/02 02:01:11;;;;;;;21.20;9.32;;;;;;;;;;5095313;27;20092;-86
2022/01/02 02:03:37;;;;;;;19.52;9.23;;;;;;;;;;5106819;27;20363;-88
2022/01/02 02:06:03;;;;;;;16.63;7.40;;;;;;;;;;5131420;27;20064;-89
2022/01/02 02:08:29;;;;;;;19.50;9.25;;;;;;;;;;5132259;27;20043;-88
2022/01/02 02:10:57;;;;;;;18.70;10.23;;;;;;;;;;5112542;27;20035;-85
2022/01/02 02:13:24;;;;;;;19.10;9.07;;;;;;;;;;5112090;27;20043;-85
2022/01/02 02:15:50;;;;;;;20.10;9.65;;;;;;;;;;5113395;27;20044;-86
2022/01/02 02:18:17;;;;;;;19.90;10.25;;;;;;;;;;5131327;27;20093;-86
2022/01/02 02:20:43;;;;;;;20.13;11.27;;;;;;;;;;5114214;27;20054;-85
2022/01/02 02:23:12;;;;;;;17.58;10.43;;;;;;;;;;5133574;27;20058;-88
2022/01/02 02:25:39;;;;;;;16.45;9.23;;;;;;;;;;5123313;27;20039;-85
2022/01/02 02:28:06;;;;;;;19.55;11.07;;;;;;;;;;5143012;27;20031;-86
2022/01/02 02:30:33;;;;;;;21.83;10.82;;;;;;;;;;5118098;27;20116;-85
2022/01/02 02:33:00;;;;;;;22.45;11.43;;;;;;;;;;5095866;27;20071;-86
2022/01/02 02:35:30;;;;;;;24.65;12.57;;;;;;;;;;5093544;27;20106;-94
2022/01/02 02:37:56;;;;;;;29.02;12.07;;;;;;;;;;5078230;27;20440;-86
2022/01/02 02:40:25;;;;;;;29.10;13.32;;;;;;;;;;5130425;27;20115;-86
2022/01/02 02:50:58;;;;;;;29.25;16.27;;;;;;;;;;5129748;27;20579;-86
2022/01/02 02:53:31;;;;;;;27.58;14.68;;;;;;;;;;5111302;27;20039;-85
2022/01/02 02:55:58;;;;;;;33.50;16.13;;;;;;;;;;5094006;27;20055;-85
2022/01/02 02:59:07;;;;;;;32.10;15.68;;;;;;;;;;5127500;27;20127;-85
2022/01/02 03:01:18;;;;;;;31.23;15.90;;;;;;;;;;5112788;27;20123;-85
2022/01/02 03:03:50;;;;;;;25.73;14.75;;;;;;;;;;5128785;27;20039;-85
2022/01/02 03:06:17;;;;;;;33.78;15.65;;;;;;;;;;5101591;28;20040;-85
2022/01/02 03:08:44;;;;;;;31.17;16.88;;;;;;;;;;5108126;28;20066;-85
2022/01/02 03:11:16;;;;;;;28.58;13.93;;;;;;;;;;5116916;27;20058;-87
2022/01/02 03:13:43;;;;;;;34.60;16.70;;;;;;;;;;5078331;27;20103;-88
2022/01/02 03:16:13;;;;;;;40.35;18.90;;;;;;;;;;5110604;27;20439;-87
2022/01/02 03:18:39;;;;;;;30.65;13.43;;;;;;;;;;5128277;27;20522;-86
2022/01/02 03:21:05;;;;;;;44.83;19.58;;;;;;;;;;5128868;27;20045;-86
2022/01/02 03:23:32;;;;;;;37.08;19.45;;;;;;;;;;5110910;27;20043;-88
2022/01/02 03:25:58;;;;;;;53.22;20.58;;;;;;;;;;5109733;27;20046;-87
2022/01/02 03:28:24;;;;;;;31.52;18.13;;;;;;;;;;5128339;27;20042;-88
2022/01/02 03:30:51;;;;;;;42.38;19.02;;;;;;;;;;5126610;27;20035;-89
2022/01/02 03:33:17;;;;;;;49.38;20.45;;;;;;;;;;5110140;27;20046;-88
2022/01/02 03:35:43;;;;;;;53.97;21.50;;;;;;;;;;5120588;27;20100;-88
2022/01/02 03:38:10;;;;;;;39.08;20.38;;;;;;;;;;5111122;27;20077;-88
2022/01/02 03:40:36;;;;;;;40.00;20.23;;;;;;;;;;5114706;27;20047;-88
2022/01/02 03:43:03;;;;;;;37.72;21.15;;;;;;;;;;5081604;27;20043;-87
2022/01/02 03:45:29;;;;;;;39.92;19.90;;;;;;;;;;5126725;27;20144;-89
2022/01/02 03:47:56;;;;;;;41.80;20.17;;;;;;;;;;5065013;28;20126;-87
2022/01/02 03:50:22;;;;;;;47.40;22.25;;;;;;;;;;5074422;27;20195;-87
2022/01/02 03:52:48;;;;;;;38.72;19.85;;;;;;;;;;5092930;27;20039;-89
2022/01/02 03:55:14;;;;;;;55.25;23.65;;;;;;;;;;5127922;27;20088;-88
2022/01/02 03:57:40;;;;;;;45.10;22.30;;;;;;;;;;5073647;28;20404;-87
2022/01/02 04:00:08;;;;;;;53.63;25.25;;;;;;;;;;5127065;27;20463;-90
2022/01/02 04:02:37;;;;;;;43.63;23.13;;;;;;;;;;5114236;27;20059;-86
2022/01/02 04:05:05;;;;;;;44.47;21.92;;;;;;;;;;5129476;27;20076;-87
2022/01/02 04:07:31;;;;;;;52.85;25.33;;;;;;;;;;5125862;27;20051;-89
2022/01/02 04:10:01;;;;;;;48.10;25.92;;;;;;;;;;5110146;27;20122;-86
2022/01/02 04:12:39;;;;;;;48.47;24.08;;;;;;;;;;5127423;27;20167;-84
2022/01/02 04:15:19;;;;;;;64.10;26.33;;;;;;;;;;5098965;27;20057;-88
2022/01/02 04:17:46;;;;;;;54.30;26.65;;;;;;;;;;5119604;27;20043;-87
2022/01/02 04:20:21;;;;;;;57.40;28.15;;;;;;;;;;5119678;27;20043;-88
2022/01/02 04:22:47;;;;;;;48.95;26.33;;;;;;;;;;5107064;27;20039;-88
2022/01/02 04:25:13;;;;;;;51.90;23.45;;;;;;;;;;5095833;27;20047;-87
2022/01/02 04:27:39;;;;;;;59.30;30.25;;;;;;;;;;5092327;27;20061;-87
2022/01/02 04:30:07;;;;;;;53.30;27.65;;;;;;;;;;5098896;27;20070;-86
2022/01/02 04:32:33;;;;;;;48.90;24.75;;;;;;;;;;5107067;27;20043;-88
2022/01/02 04:34:59;;;;;;;61.90;25.25;;;;;;;;;;5114363;27;20556;-88
2022/01/02 04:37:25;;;;;;;63.05;27.33;;;;;;;;;;5118109;27;20042;-87
2022/01/02 04:39:51;;;;;;;50.10;26.02;;;;;;;;;;5128719;27;20078;-86
2022/01/02 04:42:37;;;;;;;50.13;24.85;;;;;;;;;;5113257;27;20067;-87
2022/01/02 04:45:28;;;;;;;51.35;24.50;;;;;;;;;;5103956;28;20632;-87
2022/01/02 04:47:57;;;;;;;47.05;23.85;;;;;;;;;;5069911;28;20389;-86
2022/01/02 04:50:23;;;;;;;57.55;26.17;;;;;;;;;;5104695;28;20939;-86
2022/01/02 04:52:49;;;;;;;62.42;29.25;;;;;;;;;;5098537;28;20119;-87
2022/01/02 05:19:36;;;;;;;34.45;19.40;;;;;;;;;;5013704;28;20081;-86
2022/01/02 05:22:02;;;;;;;34.83;20.45;;;;;;;;;;5041637;28;20080;-85
2022/01/02 05:24:28;;;;;;;35.28;20.15;;;;;;;;;;5033528;28;20029;-87
2022/01/02 05:27:00;;;;;;;39.38;20.83;;;;;;;;;;5016232;28;20067;-87
2022/01/02 05:29:29;;;;;;;40.75;16.67;;;;;;;;;;5017796;28;20084;-88
2022/01/02 05:31:58;;;;;;;46.03;22.85;;;;;;;;;;5052347;28;20100;-86
2022/01/02 05:34:31;;;;;;;32.97;18.48;;;;;;;;;;5052660;28;20045;-86
2022/01/02 05:36:57;;;;;;;36.78;18.45;;;;;;;;;;5050536;28;20045;-86
2022/01/02 05:39:23;;;;;;;45.28;21.30;;;;;;;;;;5045097;28;20687;-86
2022/01/02 05:45:12;;;;;;;34.60;18.20;;;;;;;;;;5048541;28;20378;-87
2022/01/02 05:47:38;;;;;;;43.75;20.92;;;;;;;;;;5018197;28;20040;-86
2022/01/02 05:50:20;;;;;;;41.83;21.52;;;;;;;;;;5052056;28;20037;-87
2022/01/02 05:52:46;;;;;;;48.03;22.95;;;;;;;;;;5021543;23;20053;-87
2022/01/02 05:55:13;;;;;;;44.55;21.77;;;;;;;;;;4991598;28;20497;-88
2022/01/02 05:57:39;;;;;;;46.72;22.50;;;;;;;;;;4995150;28;20056;-88
2022/01/02 06:00:05;;;;;;;50.63;23.60;;;;;;;;;;4988319;28;20056;-87
2022/01/02 06:02:31;;;;;;;51.15;23.95;;;;;;;;;;5028850;28;20477;-87
2022/01/02 06:04:58;;;;;;;49.50;24.10;;;;;;;;;;5024523;28;20072;-88
2022/01/02 06:10:46;;;;;;;43.78;21.23;;;;;;;;;;5015217;28;20084;-87
2022/01/02 06:13:14;;;;;;;;;;;;;;;;;;5026297;28;20057;-87
2022/01/02 06:15:40;;;;;;;45.22;18.10;;;;;;;;;;5027166;28;20028;-87
2022/01/02 06:18:21;;;;;;;36.22;15.98;;;;;;;;;;5008018;28;20038;-87
2022/01/02 06:20:47;;;;;;;41.30;16.40;;;;;;;;;;5026611;28;20037;-87
2022/01/02 06:23:13;;;;;;;38.25;17.30;;;;;;;;;;4986695;28;20622;-88
2022/01/02 06:26:18;;;;;;;38.55;16.00;;;;;;;;;;5007281;28;20049;-89
2022/01/02 06:28:43;;;;;;;37.27;16.57;;;;;;;;;;5007856;28;20085;-90
2022/01/02 06:31:19;;;;;;;31.20;14.10;;;;;;;;;;5025473;28;20318;-87
2022/01/02 06:33:45;;;;;;;37.47;15.57;;;;;;;;;;5007230;28;20044;-87
2022/01/02 06:36:11;;;;;;;39.40;15.90;;;;;;;;;;5004935;28;20085;-87
2022/01/02 06:38:37;;;;;;;32.40;13.05;;;;;;;;;;5004653;28;20047;-88
2022/01/02 06:41:03;;;;;;;33.70;13.57;;;;;;;;;;5003360;28;20100;-86
2022/01/02 06:43:32;;;;;;;33.28;13.27;;;;;;;;;;4972361;28;20049;-86
2022/01/02 06:45:58;;;;;;;38.80;14.27;;;;;;;;;;5021987;28;20093;-88
2022/01/02 06:48:33;;;;;;;38.40;14.70;;;;;;;;;;5025008;28;20049;-88
2022/01/02 06:50:59;;;;;;;36.67;13.23;;;;;;;;;;5020434;28;20037;-87
2022/01/02 06:53:31;;;;;;;30.40;12.85;;;;;;;;;;5003059;28;20069;-87
2022/01/02 06:56:14;;;;;;;28.40;12.40;;;;;;;;;;5003182;28;20118;-87
2022/01/02 06:58:40;;;;;;;30.05;13.90;;;;;;;;;;4986349;28;20087;-87
2022/01/02 07:01:10;;;;;;;31.60;14.45;;;;;;;;;;4988810;28;20050;-87
2022/01/02 07:03:37;;;;;;;33.25;12.35;;;;;;;;;;5011843;28;20033;-87
2022/01/02 07:06:03;;;;;;;25.40;10.82;;;;;;;;;;4984879;28;20176;-88
2022/01/02 07:08:29;;;;;;;30.67;11.95;;;;;;;;;;5034301;28;20045;-87
2022/01/02 07:10:56;;;;;;;36.13;12.73;;;;;;;;;;4990445;28;20065;-88
2022/01/02 07:13:22;;;;;;;28.00;11.95;;;;;;;;;;5009777;28;20038;-87
2022/01/02 07:16:01;;;;;;;22.42;12.02;;;;;;;;;;4990625;28;20033;-86
2022/01/02 07:18:37;;;;;;;30.42;11.85;;;;;;;;;;5004795;28;20409;-87
2022/01/02 07:21:03;;;;;;;22.35;10.27;;;;;;;;;;4971546;28;20073;-86
2022/01/02 07:23:29;;;;;;;20.88;8.82;;;;;;;;;;5023312;28;20088;-87
2022/01/02 07:26:07;;;;;;;20.52;9.55;;;;;;;;;;5004423;28;20042;-87
2022/01/02 07:28:34;;;;;;;24.52;10.20;;;;;;;;;;5021551;28;20125;-87
2022/01/02 07:31:09;;;;;;;25.08;9.50;;;;;;;;;;5030312;28;20041;-87
2022/01/02 07:33:35;;;;;;;23.80;8.63;;;;;;;;;;4972807;28;20397;-87
2022/01/02 07:36:04;;;;;;;14.20;7.25;;;;;;;;;;5004402;28;20037;-88
2022/01/02 07:38:30;;;;;;;22.70;8.35;;;;;;;;;;5019719;28;20037;-87
2022/01/02 07:41:00;;;;;;;23.45;7.57;;;;;;;;;;4998751;28;20036;-86
2022/01/02 07:43:26;;;;;;;19.85;6.25;;;;;;;;;;4974193;28;20040;-85
2022/01/02 07:45:52;;;;;;;18.02;6.82;;;;;;;;;;4983859;28;20041;-86
2022/01/02 07:48:18;;;;;;;22.42;7.00;;;;;;;;;;5021222;28;20033;-85
2022/01/02 07:50:57;;;;;;;23.38;7.65;;;;;;;;;;5023682;28;20041;-87
2022/01/02 07:53:23;;;;;;;23.20;6.45;;;;;;;;;;4993767;28;20065;-86
2022/01/02 07:55:58;;;;;;;13.70;7.03;;;;;;;;;;5002480;28;20053;-86
2022/01/02 07:58:33;;;;;;;16.33;5.68;;;;;;;;;;5019386;28;20045;-86
2022/01/02 08:01:19;;;;;;;17.02;6.97;;;;;;;;;;5004307;28;20037;-86
2022/01/02 08:03:45;;;;;;;20.70;7.25;;;;;;;;;;5024385;28;20041;-87
2022/01/02 08:06:11;;;;;;;14.82;5.40;;;;;;;;;;4989084;28;20056;-85
2022/01/02 08:08:38;;;;;;;15.57;5.70;;;;;;;;;;4994507;28;20075;-86
2022/01/02 08:11:07;;;;;;;13.43;5.38;;;;;;;;;;5009768;28;20089;-87
2022/01/02 08:14:11;;;;;;;16.65;6.47;;;;;;;;;;4992166;28;20057;-87
2022/01/02 08:16:50;;;;;;;14.27;6.80;;;;;;;;;;4999131;28;20046;-86
2022/01/02 08:19:16;;;;;;;17.52;6.80;;;;;;;;;;5023789;28;20103;-86
2022/01/02 08:21:47;;;;;;;10.70;5.50;;;;;;;;;;5019539;28;20051;-87
2022/01/02 08:24:13;;;;;;;12.27;5.70;;;;;;;;;;5015792;28;20111;-86
2022/01/02 08:26:39;;;;;;;15.63;6.22;;;;;;;;;;5011488;28;20045;-87
2022/01/02 08:29:27;;;;;;;16.88;5.72;;;;;;;;;;5002269;28;20067;-86
2022/01/02 08:32:05;;;;;;;17.92;6.18;;;;;;;;;;4989012;28;20053;-86
2022/01/02 08:34:31;;;;;;;13.73;6.30;;;;;;;;;;5023294;28;20838;-86
2022/01/02 08:36:58;;;;;;;13.25;5.65;;;;;;;;;;5014200;23;20493;-85
2022/01/02 08:39:28;;;;;;;11.90;5.03;;;;;;;;;;5030829;28;20511;-86
2022/01/02 08:41:54;;;;;;;16.67;6.00;;;;;;;;;;5050158;28;20048;-86
2022/01/02 08:44:20;;;;;;;8.90;4.45;;;;;;;;;;5210752;22;20412;-86
2022/01/02 08:46:46;;;;;;;23.70;8.25;;;;;;;;;;5007993;28;20483;-86
2022/01/02 08:49:12;;;;;;;23.05;7.20;;;;;;;;;;5008365;28;20502;-86
2022/01/02 08:51:38;;;;;;;13.52;6.75;;;;;;;;;;4990998;28;20085;-86
2022/01/02 08:54:05;;;;;;;15.57;6.53;;;;;;;;;;5007449;28;20060;-86
2022/01/02 08:56:32;;;;;;;12.35;6.13;;;;;;;;;;4971433;28;21499;-86
2022/01/02 08:58:58;;;;;;;11.52;6.03;;;;;;;;;;4990229;28;20196;-86
2022/01/02 09:01:24;;;;;;;12.75;6.70;;;;;;;;;;4972430;28;20124;-86
2022/01/02 09:03:56;;;;;;;18.25;6.80;;;;;;;;;;5039810;23;20065;-85
2022/01/02 09:09:03;;;;;;;16.40;6.30;;;;;;;;;;5214984;23;20203;-86
2022/01/02 09:11:30;;;;;;;16.63;7.03;;;;;;;;;;5043758;28;20944;-86
2022/01/02 09:14:14;;;;;;;14.90;6.00;;;;;;;;;;5045789;28;20110;-85
2022/01/02 09:16:40;;;;;;;13.07;6.07;;;;;;;;;;5043816;28;20041;-86
2022/01/02 09:19:07;;;;;;;9.82;5.93;;;;;;;;;;5043444;28;20041;-85
2022/01/02 09:21:33;;;;;;;11.35;6.13;;;;;;;;;;5034217;28;20582;-85
2022/01/02 09:23:59;;;;;;;16.58;7.55;;;;;;;;;;5032940;28;20572;-85
2022/01/02 09:26:31;;;;;;;10.05;6.32;;;;;;;;;;5038483;28;20052;-85
2022/01/02 09:28:57;;;;;;;12.10;6.97;;;;;;;;;;5008375;28;20044;-86
2022/01/02 09:31:24;;;;;;;16.77;8.88;;;;;;;;;;5011527;28;20544;-87
2022/01/02 09:33:50;;;;;;;13.15;8.35;;;;;;;;;;5009333;28;20064;-86
2022/01/02 09:36:17;;;;;;;13.35;8.32;;;;;;;;;;5046917;28;20656;-88
2022/01/02 09:38:43;;;;;;;12.95;7.63;;;;;;;;;;5042138;28;20455;-87
2022/01/02 09:41:09;;;;;;;9.05;6.80;;;;;;;;;;5008008;28;20052;-86
2022/01/02 09:43:35;;;;;;;9.05;6.28;;;;;;;;;;5043363;28;20486;-87
2022/01/02 09:46:03;;;;;;;9.70;6.00;;;;;;;;;;5043016;28;20025;-86
2022/01/02 09:48:30;;;;;;;11.77;6.53;;;;;;;;;;5006945;28;20045;-87
2022/01/02 09:50:57;;;;;;;11.07;7.10;;;;;;;;;;5026308;28;20037;-87
2022/01/02 09:53:26;;;;;;;11.68;7.40;;;;;;;;;;5043059;28;20045;-87
2022/01/02 09:55:55;;;;;;;13.00;7.47;;;;;;;;;;5041759;28;20082;-87
2022/01/02 09:58:21;;;;;;;12.27;7.57;;;;;;;;;;5005068;28;20041;-87
2022/01/02 10:00:48;;;;;;;14.95;7.78;;;;;;;;;;5042837;28;20047;-87
2022/01/02 10:03:20;;;;;;;10.20;6.50;;;;;;;;;;5009949;28;20048;-89
2022/01/02 10:05:56;;;;;;;10.65;7.63;;;;;;;;;;5006958;28;20049;-88
2022/01/02 10:08:22;;;;;;;11.07;8.00;;;;;;;;;;5044029;28;20049;-88
2022/01/02 10:11:07;;;;;;;12.50;8.35;;;;;;;;;;5011336;28;20956;-87
2022/01/02 10:13:33;;;;;;;;;;;;;;;;;;5048302;28;20059;-87
2022/01/02 10:15:59;;;;;;;14.65;8.23;;;;;;;;;;5015285;28;19925;-87
2022/01/02 10:18:25;;;;;;;17.15;10.38;;;;;;;;;;5052242;28;20115;-86
2022/01/02 10:20:51;;;;;;;16.30;9.75;;;;;;;;;;5024918;28;20566;-87
2022/01/02 10:23:21;;;;;;;18.13;8.65;;;;;;;;;;5026792;28;20485;-87
2022/01/02 10:26:12;;;;;;;18.75;10.80;;;11.40;99.90;;;;;;5025569;28;20041;-87
2022/01/02 10:28:44;;;;;;;18.60;11.02;;;;;;;;;;5042004;28;20412;-87
2022/01/02 10:31:25;;;;;;;19.70;11.82;;;;;;;;;;5027951;28;20149;-87
2022/01/02 10:34:17;;;;;;;20.75;13.50;;;11.40;99.90;;;;;;5025001;28;20037;-86
2022/01/02 10:37:01;;;;;;;22.17;13.68;;;;;;;;;;5028405;28;20095;-87
2022/01/02 10:39:38;;;;;;;15.48;10.05;;;;;;;;;;5024781;28;20468;-88
2022/01/02 10:42:32;;;;;;;23.30;14.05;;;;;;;;;;5044201;28;20568;-87
2022/01/02 10:45:11;;;;;;;;;;;;;;;;;;5027902;28;20472;-88
2022/01/02 10:47:43;;;;;;;19.90;13.20;;;;;;;;;;5040736;28;19925;-88
2022/01/02 10:50:47;;;;;;;17.77;12.80;;;;;;;;;;5042996;28;20119;-87
2022/01/02 10:53:41;;;;;;;16.00;12.13;;;;;;;;;;5040430;28;20408;-87
2022/01/02 10:56:07;;;;;;;17.73;10.02;;;;;;;;;;5011103;28;20575;-87
2022/01/02 10:58:36;;;;;;;18.98;10.68;;;;;;;;;;4967370;28;20546;-87
2022/01/02 11:01:06;;;;;;;20.08;12.40;;;;;;;;;;4980651;28;20450;-88
2022/01/02 11:03:32;;;;;;;21.02;11.13;;;;;;;;;;4950495;28;20512;-87
2022/01/02 11:06:13;;;;;;;20.13;13.80;;;;;;;;;;4950442;28;20595;-89
2022/01/02 11:08:43;;;;;;;20.40;14.05;;;;;;;;;;4961709;28;20453;-86
2022/01/02 11:11:09;;;;;;;17.83;12.23;;;;;;;;;;4946798;28;20058;-86
2022/01/02 11:13:53;;;;;;;23.67;9.95;;;;;;;;;;4959077;28;20058;-87
2022/01/02 11:16:26;;;;;;;25.52;13.23;;;;;;;;;;4977436;28;20042;-86
2022/01/02 11:18:52;;;;;;;23.88;10.57;;;;;;;;;;4986978;28;20102;-86
2022/01/02 11:21:20;;;;;;;30.67;10.55;;;;;;;;;;5115151;23;20117;-85
2022/01/02 11:27:18;;;;;;;21.15;7.45;;;;;;;;;;5037083;28;20087;-86
2022/01/02 11:29:44;;;;;;;11.68;5.50;;;;;;;;;;5026871;28;20494;-85
2022/01/02 11:32:26;;;;;;;17.85;6.80;;;;;;;;;;5023727;28;20138;-86
2022/01/02 11:34:53;;;;;;;20.65;6.40;;;;;;;;;;4992098;28;20565;-85
2022/01/02 11:37:20;;;;;;;13.90;5.60;;;;;;;;;;5004649;28;20391;-85
2022/01/02 11:39:53;;;;;;;16.27;5.30;;;;;;;;;;4992382;28;20049;-85
2022/01/02 11:42:35;;;;;;;12.73;4.72;;;;;;;;;;5007767;28;20049;-85
2022/01/02 11:45:02;;;;;;;13.65;5.50;;;;;;;;;;5009873;28;20532;-84
2022/01/02 11:47:41;;;;;;;13.85;4.78;;;;;;;;;;4974626;28;20046;-86
2022/01/02 11:50:26;;;;;;;16.42;5.38;;;;;;;;;;5017429;28;20064;-85
2022/01/02 11:53:11;;;;;;;17.80;4.88;;;;;;;;;;5044781;28;20045;-84
2022/01/02 11:55:41;;;;;;;13.70;5.00;;;;;;;;;;5036300;28;20064;-85
2022/01/02 11:58:08;;;;;;;12.50;4.80;;;;;;;;;;5010954;28;20053;-84
2022/01/02 12:00:36;;;;;;;15.68;5.05;;;;;;;;;;5029139;28;20057;-84
2022/01/02 12:03:02;;;;;;;12.88;4.55;;;;;;;;;;5028088;28;20045;-84
2022/01/02 12:05:28;;;;;;;10.65;4.25;;;;;;;;;;5005590;28;20077;-86
2022/01/02 12:07:55;;;;;;;15.35;5.07;;;;;;;;;;5022063;28;20103;-85
2022/01/02 12:10:21;;;;;;;12.82;4.32;;;;;;;;;;4975990;28;20508;-86
2022/01/02 12:12:56;;;;;;;20.33;5.32;;;;;;;;;;4991474;28;20096;-85
2022/01/02 12:15:42;;;;;;;13.38;4.50;;;;;;;;;;5024997;28;20048;-86
2022/01/02 12:18:25;;;;;;;14.35;4.35;;;;;;;;;;5009232;28;20080;-85
2022/01/02 12:20:52;;;;;;;10.77;4.00;;;;;;;;;;5008472;28;20065;-84
2022/01/02 12:23:30;;;;;;;14.82;4.93;;;;;;;;;;5024653;28;20057;-84
2022/01/02 12:26:00;;;;;;;13.93;4.35;;;;;;;;;;5024311;28;20566;-84
2022/01/02 12:28:36;;;;;;;13.93;4.90;;;;;;;;;;4989241;28;20053;-86
2022/01/02 12:31:04;;;;;;;10.85;3.63;;;;;;;;;;5024337;28;20053;-86
2022/01/02 12:33:30;;;;;;;10.88;3.80;;;;;;;;;;4989152;28;20048;-87
2022/01/02 12:36:15;;;;;;;18.77;5.28;;;;;;;;;;5028126;28;20068;-87
2022/01/02 12:38:46;;;;;;;13.07;3.90;;;;;;;;;;5006979;28;20045;-87
2022/01/02 12:41:13;;;;;;;13.60;3.38;;;;;;;;;;5028178;28;20126;-87
2022/01/02 12:43:41;;;;;;;20.73;3.90;;;;;;;;;;5026251;28;20064;-87
2022/01/02 12:46:13;;;;;;;13.30;3.40;;;;;;;;;;5008939;28;20057;-85
2022/01/02 12:48:46;;;;;;;25.70;4.88;;;;;;;;;;5008671;28;20390;-87
2022/01/02 12:51:31;;;;;;;17.45;3.75;;;;;;;;;;5029805;28;20049;-86
2022/01/02 12:54:04;;;;;;;16.75;3.45;;;;;;;;;;5026000;28;20042;-87
2022/01/02 12:56:41;;;;;;;15.90;3.10;;;;;;;;;;5026467;28;20045;-87
2022/01/02 12:59:14;;;;;;;19.13;3.65;;;;;;;;;;5007932;28;20137;-87
2022/01/02 13:01:55;;;;;;;18.83;3.08;;;;;;;;;;4992361;28;20068;-86
2022/01/02 13:04:37;;;;;;;14.70;3.10;;;;;;;;;;4990833;28;20064;-87
2022/01/02 13:07:23;;;;;;;20.13;4.53;;;;;;;;;;5003045;28;20065;-87
2022/01/02 13:09:56;;;;;;;14.95;3.28;;;;;;;;;;5022020;28;20088;-87
2022/01/02 13:12:29;;;;;;;14.05;3.03;;;;;;;;;;4991335;28;20175;-87
2022/01/02 13:15:06;;;;;;;9.93;2.58;;;;;;;;;;5027493;28;20045;-87
2022/01/02 13:17:34;;;;;;;11.63;2.70;;;;;;;;;;5021547;28;20041;-88
2022/01/02 13:20:03;;;;;;;11.02;2.72;;;;;;;;;;5009918;28;20045;-88
2022/01/02 13:22:30;;;;;;;11.77;2.92;;;;;;;;;;4993694;28;20053;-88
2022/01/02 13:25:07;;;;;;;9.52;2.35;;;;;;;;;;5026173;28;20060;-87
2022/01/02 13:27:47;;;;;;;13.75;2.78;;;;;;;;;;5008721;28;20086;-88
2022/01/02 13:30:17;;;;;;;14.18;2.38;;;;;;;;;;5025879;28;20080;-89
2022/01/02 13:32:47;;;;;;;9.63;2.47;;;;;;;;;;5010396;28;20052;-88
2022/01/02 13:35:20;;;;;;;13.98;2.28;;;;;;;;;;4982167;28;20057;-87
2022/01/02 13:38:20;;;;;;;13.90;2.20;;;;;;;;;;4983427;28;20050;-88
2022/01/02 13:40:48;;;;;;;17.02;2.60;;;;;;;;;;4967277;28;20494;-88
2022/01/02 13:43:35;;;;;;;12.00;2.33;;;11.40;99.90;;;;;;4986015;28;20117;-87
2022/01/02 13:46:01;;;;;;;8.63;2.15;;;;;;;;;;4985936;28;20034;-88
2022/01/02 13:48:37;;;;;;;6.93;1.98;;;;;;;;;;4988259;28;20070;-90
2022/01/02 13:51:12;;;;;;;9.88;1.95;;;;;;;;;;4971019;28;20058;-88
2022/01/02 13:57:06;;;;;;;10.77;2.13;;;;;;;;;;4987801;28;20045;-89
2022/01/02 13:59:48;;;;;;;11.93;2.55;;;;;;;;;;4987947;28;20228;-88
2022/01/02 14:02:14;;;;;;;11.52;2.58;;;;;;;;;;4987314;28;20054;-88
2022/01/02 14:04:57;;;;;;;14.27;2.45;;;;;;;;;;4987865;28;20120;-88
2022/01/02 14:07:27;;;;;;;14.07;2.38;;;;;;;;;;5029386;28;20049;-88
2022/01/02 14:09:53;;;;;;;15.75;2.83;;;;;;;;;;5020517;28;20041;-88
2022/01/02 14:12:27;;;;;;;12.82;2.22;;;;;;;;;;5013247;28;20048;-89
2022/01/02 14:15:02;;;;;;;17.10;3.25;;;;;;;;;;5044129;28;20041;-88
2022/01/02 14:17:34;;;;;;;18.63;2.10;;;;;;;;;;5038031;28;20136;-88
2022/01/02 14:20:00;;;;;;;12.23;2.03;;;;;;;;;;4996135;28;20037;-86
2022/01/02 14:22:27;;;;;;;13.68;2.40;;;;;;;;;;5019225;28;20058;-88
2022/01/02 14:24:57;;;;;;;12.43;2.25;;;;;;;;;;5030265;28;20061;-86
2022/01/02 14:27:24;;;;;;;12.82;2.72;;;;;;;;;;5009973;28;20563;-87
2022/01/02 14:29:51;;;;;;;15.52;2.30;;;;;;;;;;5012003;28;20087;-86
2022/01/02 14:32:18;;;;;;;12.40;2.38;;;;;;;;;;5029184;28;20069;-86
2022/01/02 14:34:44;;;;;;;22.20;2.80;;;;;;;;;;5031013;28;20046;-87
2022/01/02 14:37:13;;;;;;;9.68;2.30;;;;;;;;;;5028446;28;20505;-87
2022/01/02 14:39:40;;;;;;;14.50;2.25;;;;;;;;;;4998463;28;20401;-88
2022/01/02 14:42:06;;;;;;;14.00;2.42;;;;;;;;;;5028874;28;20122;-87
2022/01/02 14:44:33;;;;;;;17.10;2.72;;;;;;;;;;5029643;28;20164;-88
2022/01/02 14:46:59;;;;;;;12.63;2.75;;;;;;;;;;5030373;28;20136;-87
2022/01/02 14:49:26;;;;;;;15.60;2.45;;;;;;;;;;4993869;28;20033;-86
2022/01/02 14:51:52;;;;;;;11.35;2.40;;;;;;;;;;5012537;28;20121;-86
2022/01/02 14:54:19;;;;;;;15.18;2.55;;;;;;;;;;5011097;28;20037;-91
2022/01/02 14:56:45;;;;;;;15.63;2.15;;;;;;;;;;4997600;28;20072;-90
2022/01/02 14:59:11;;;;;;;11.75;2.58;;;;;;;;;;4995558;28;20088;-88
2022/01/02 15:01:38;;;;;;;10.55;2.25;;;;;;;;;;4981241;28;20041;-90
2022/01/02 15:04:05;;;;;;;17.35;2.90;;;;;;;;;;4996125;28;20528;-88
2022/01/02 15:06:41;;;;;;;14.77;2.78;;;;;;;;;;5030763;28;20167;-89
2022/01/02 15:09:08;;;;;;;13.85;2.75;;;;;;;;;;5030664;28;20401;-89
2022/01/02 15:11:34;;;;;;;11.73;2.08;;;;;;;;;;4992123;28;20478;-86
2022/01/02 15:14:00;;;;;;;13.75;2.58;;;;;;;;;;5010217;28;20124;-86
2022/01/02 15:16:26;;;;;;;11.82;2.10;;;;;;;;;;4991208;28;20116;-86
2022/01/02 15:18:52;;;;;;;17.90;2.65;;;;;;;;;;5011170;28;20145;-88
2022/01/02 15:21:18;;;;;;;13.48;1.90;;;;;;;;;;5010217;28;20070;-89
2022/01/02 15:23:47;;;;;;;17.13;2.13;;;;;;;;;;5029997;28;20049;-86
2022/01/02 15:26:13;;;;;;;9.23;1.98;;;;;;;;;;5028908;28;20041;-87
2022/01/02 15:28:41;;;;;;;9.70;1.95;;;;;;;;;;5012075;28;20834;-88
2022/01/02 15:31:08;;;;;;;19.15;2.83;;;;;;;;;;5029812;28;20049;-86
2022/01/02 15:33:37;;;;;;;11.23;2.15;;;;;;;;;;5010474;28;20069;-87
2022/01/02 15:36:03;;;;;;;11.93;1.70;;;;;;;;;;5012981;28;20053;-88